sensor_id;sensor_type;location;lat;lon;timestamp;P1;durP1;ratioP1;P2;durP2;ratioP2
60426;SDS011;46274;47.168;27.604;2023-04-03T00:02:52;16.23;;;9.30;;
60426;SDS011;46274;47.168;27.604;2023-04-03T00:08:55;14.67;;;9.00;;
60426;SDS011;46274;47.168;27.604;2023-04-03T00:14:57;16.87;;;9.73;;
60426;SDS011;46274;47.168;27.604;2023-04-03T00:21:01;18.70;;;9.97;;
60426;SDS011;46274;47.168;27.604;2023-04-03T00:27:05;17.43;;;10.00;;
60426;SDS011;46274;47.168;27.604;2023-04-03T00:33:12;20.37;;;11.47;;
60426;SDS011;46274;47.168;27.604;2023-04-03T00:39:18;19.17;;;11.73;;
60426;SDS011;46274;47.168;27.604;2023-04-03T00:45:32;20.40;;;12.53;;
60426;SDS011;46274;47.168;27.604;2023-04-03T00:51:41;21.07;;;12.37;;
60426;SDS011;46274;47.168;27.604;2023-04-03T00:57:45;23.13;;;13.57;;
60426;SDS011;46274;47.168;27.604;2023-04-03T01:03:50;26.80;;;13.07;;
60426;SDS011;46274;47.168;27.604;2023-04-03T01:09:55;24.30;;;13.20;;
60426;SDS011;46274;47.168;27.604;2023-04-03T01:16:03;22.47;;;12.00;;
60426;SDS011;46274;47.168;27.604;2023-04-03T01:22:14;18.57;;;11.60;;
60426;SDS011;46274;47.168;27.604;2023-04-03T01:28:23;22.43;;;12.43;;
60426;SDS011;46274;47.168;27.604;2023-04-03T01:34:31;29.27;;;13.40;;
60426;SDS011;46274;47.168;27.604;2023-04-03T01:40:33;27.40;;;14.10;;
60426;SDS011;46274;47.168;27.604;2023-04-03T01:46:36;23.27;;;13.53;;
60426;SDS011;46274;47.168;27.604;2023-04-03T01:52:40;24.53;;;12.70;;
60426;SDS011;46274;47.168;27.604;2023-04-03T01:58:43;26.03;;;13.90;;
60426;SDS011;46274;47.168;27.604;2023-04-03T02:04:45;25.23;;;14.20;;
60426;SDS011;46274;47.168;27.604;2023-04-03T02:10:51;28.20;;;15.37;;
60426;SDS011;46274;47.168;27.604;2023-04-03T02:16:54;25.03;;;15.40;;
60426;SDS011;46274;47.168;27.604;2023-04-03T02:22:56;37.57;;;17.83;;
60426;SDS011;46274;47.168;27.604;2023-04-03T02:28:59;31.73;;;17.40;;
60426;SDS011;46274;47.168;27.604;2023-04-03T02:35:01;27.73;;;15.53;;
60426;SDS011;46274;47.168;27.604;2023-04-03T02:41:05;32.33;;;16.03;;
60426;SDS011;46274;47.168;27.604;2023-04-03T02:47:13;31.50;;;15.47;;
60426;SDS011;46274;47.168;27.604;2023-04-03T02:53:15;24.10;;;14.53;;
60426;SDS011;46274;47.168;27.604;2023-04-03T02:59:18;23.40;;;12.93;;
60426;SDS011;46274;47.168;27.604;2023-04-03T03:05:24;22.23;;;13.47;;
60426;SDS011;46274;47.168;27.604;2023-04-03T03:11:26;26.43;;;14.37;;
60426;SDS011;46274;47.168;27.604;2023-04-03T03:17:30;22.87;;;13.33;;
60426;SDS011;46274;47.168;27.604;2023-04-03T03:23:34;24.57;;;14.20;;
60426;SDS011;46274;47.168;27.604;2023-04-03T03:29:36;27.93;;;15.03;;
60426;SDS011;46274;47.168;27.604;2023-04-03T03:35:39;26.97;;;14.80;;
60426;SDS011;46274;47.168;27.604;2023-04-03T03:41:42;28.40;;;13.20;;
60426;SDS011;46274;47.168;27.604;2023-04-03T03:47:46;24.53;;;13.57;;
60426;SDS011;46274;47.168;27.604;2023-04-03T03:53:48;23.67;;;12.70;;
60426;SDS011;46274;47.168;27.604;2023-04-03T03:59:51;17.03;;;10.43;;
60426;SDS011;46274;47.168;27.604;2023-04-03T04:05:56;14.53;;;8.30;;
60426;SDS011;46274;47.168;27.604;2023-04-03T04:12:02;15.00;;;7.93;;
60426;SDS011;46274;47.168;27.604;2023-04-03T04:18:04;13.27;;;7.97;;
60426;SDS011;46274;47.168;27.604;2023-04-03T04:24:10;16.57;;;8.10;;
60426;SDS011;46274;47.168;27.604;2023-04-03T04:30:13;14.40;;;8.53;;
60426;SDS011;46274;47.168;27.604;2023-04-03T04:36:16;16.80;;;8.07;;
60426;SDS011;46274;47.168;27.604;2023-04-03T04:42:18;15.40;;;8.10;;
60426;SDS011;46274;47.168;27.604;2023-04-03T04:48:21;13.47;;;6.77;;
60426;SDS011;46274;47.168;27.604;2023-04-03T04:54:23;15.90;;;7.30;;
60426;SDS011;46274;47.168;27.604;2023-04-03T05:00:29;12.70;;;6.50;;
60426;SDS011;46274;47.168;27.604;2023-04-03T05:06:31;10.20;;;5.50;;
60426;SDS011;46274;47.168;27.604;2023-04-03T05:12:36;8.87;;;5.77;;
60426;SDS011;46274;47.168;27.604;2023-04-03T05:18:47;9.03;;;5.47;;
60426;SDS011;46274;47.168;27.604;2023-04-03T05:24:52;9.93;;;5.50;;
60426;SDS011;46274;47.168;27.604;2023-04-03T05:30:54;7.75;;;4.72;;
60426;SDS011;46274;47.168;27.604;2023-04-03T05:36:58;6.97;;;4.30;;
60426;SDS011;46274;47.168;27.604;2023-04-03T05:43:01;7.87;;;4.77;;
60426;SDS011;46274;47.168;27.604;2023-04-03T05:49:03;13.33;;;4.27;;
60426;SDS011;46274;47.168;27.604;2023-04-03T05:55:07;13.70;;;4.50;;
60426;SDS011;46274;47.168;27.604;2023-04-03T06:01:17;9.81;;;5.04;;
60426;SDS011;46274;47.168;27.604;2023-04-03T06:07:23;7.97;;;4.57;;
60426;SDS011;46274;47.168;27.604;2023-04-03T06:13:32;7.23;;;4.33;;
60426;SDS011;46274;47.168;27.604;2023-04-03T06:19:41;7.03;;;4.17;;
60426;SDS011;46274;47.168;27.604;2023-04-03T06:25:46;8.97;;;4.67;;
60426;SDS011;46274;47.168;27.604;2023-04-03T06:31:49;9.70;;;4.57;;
60426;SDS011;46274;47.168;27.604;2023-04-03T06:38:00;11.17;;;5.07;;
60426;SDS011;46274;47.168;27.604;2023-04-03T06:44:11;14.07;;;6.10;;
60426;SDS011;46274;47.168;27.604;2023-04-03T06:50:15;7.57;;;4.83;;
60426;SDS011;46274;47.168;27.604;2023-04-03T06:56:21;7.60;;;3.60;;
60426;SDS011;46274;47.168;27.604;2023-04-03T07:02:26;7.13;;;3.70;;
60426;SDS011;46274;47.168;27.604;2023-04-03T07:08:28;2.50;;;1.70;;
60426;SDS011;46274;47.168;27.604;2023-04-03T07:14:31;2.57;;;1.80;;
60426;SDS011;46274;47.168;27.604;2023-04-03T07:20:36;3.40;;;1.70;;
60426;SDS011;46274;47.168;27.604;2023-04-03T07:26:41;2.73;;;1.40;;
60426;SDS011;46274;47.168;27.604;2023-04-03T07:32:43;4.33;;;1.30;;
60426;SDS011;46274;47.168;27.604;2023-04-03T07:38:49;3.07;;;1.30;;
60426;SDS011;46274;47.168;27.604;2023-04-03T07:44:52;1.67;;;1.00;;
60426;SDS011;46274;47.168;27.604;2023-04-03T07:51:02;3.83;;;1.30;;
60426;SDS011;46274;47.168;27.604;2023-04-03T07:57:07;2.23;;;1.20;;
60426;SDS011;46274;47.168;27.604;2023-04-03T08:03:14;2.67;;;1.50;;
60426;SDS011;46274;47.168;27.604;2023-04-03T08:09:19;3.40;;;1.60;;
60426;SDS011;46274;47.168;27.604;2023-04-03T08:15:27;3.37;;;1.63;;
60426;SDS011;46274;47.168;27.604;2023-04-03T08:21:29;3.53;;;2.00;;
60426;SDS011;46274;47.168;27.604;2023-04-03T08:27:37;3.33;;;1.90;;
60426;SDS011;46274;47.168;27.604;2023-04-03T08:33:42;5.43;;;1.87;;
60426;SDS011;46274;47.168;27.604;2023-04-03T08:39:53;8.10;;;2.70;;
60426;SDS011;46274;47.168;27.604;2023-04-03T08:45:57;2.87;;;1.67;;
60426;SDS011;46274;47.168;27.604;2023-04-03T08:52:12;4.40;;;1.57;;
60426;SDS011;46274;47.168;27.604;2023-04-03T08:58:29;2.07;;;1.40;;
60426;SDS011;46274;47.168;27.604;2023-04-03T09:04:56;3.93;;;1.50;;
60426;SDS011;46274;47.168;27.604;2023-04-03T09:17:20;4.10;;;1.90;;
60426;SDS011;46274;47.168;27.604;2023-04-03T09:23:51;2.87;;;1.57;;
60426;SDS011;46274;47.168;27.604;2023-04-03T09:29:58;3.73;;;2.20;;
60426;SDS011;46274;47.168;27.604;2023-04-03T09:36:00;4.60;;;2.30;;
60426;SDS011;46274;47.168;27.604;2023-04-03T09:42:11;4.87;;;2.13;;
60426;SDS011;46274;47.168;27.604;2023-04-03T09:48:22;7.83;;;3.10;;
60426;SDS011;46274;47.168;27.604;2023-04-03T09:54:31;4.50;;;2.57;;
60426;SDS011;46274;47.168;27.604;2023-04-03T10:00:43;4.50;;;2.87;;
60426;SDS011;46274;47.168;27.604;2023-04-03T10:07:00;10.00;;;3.37;;
60426;SDS011;46274;47.168;27.604;2023-04-03T10:13:04;7.13;;;4.13;;
60426;SDS011;46274;47.168;27.604;2023-04-03T10:25:43;6.40;;;3.30;;
60426;SDS011;46274;47.168;27.604;2023-04-03T10:32:15;8.27;;;3.20;;
60426;SDS011;46274;47.168;27.604;2023-04-03T10:57:47;8.27;;;4.20;;
60426;SDS011;46274;47.168;27.604;2023-04-03T11:03:53;4.73;;;3.27;;
60426;SDS011;46274;47.168;27.604;2023-04-03T11:10:21;7.77;;;3.50;;
60426;SDS011;46274;47.168;27.604;2023-04-03T11:16:28;4.03;;;3.00;;
60426;SDS011;46274;47.168;27.604;2023-04-03T11:22:49;4.53;;;3.33;;
60426;SDS011;46274;47.168;27.604;2023-04-03T11:28:58;5.63;;;3.67;;
60426;SDS011;46274;47.168;27.604;2023-04-03T11:35:06;11.87;;;5.10;;
60426;SDS011;46274;47.168;27.604;2023-04-03T11:41:11;9.60;;;4.17;;
60426;SDS011;46274;47.168;27.604;2023-04-03T11:48:02;5.50;;;3.70;;
60426;SDS011;46274;47.168;27.604;2023-04-03T11:53:51;8.97;;;3.67;;
60426;SDS011;46274;47.168;27.604;2023-04-03T11:59:56;7.93;;;3.67;;
60426;SDS011;46274;47.168;27.604;2023-04-03T12:24:47;5.77;;;3.67;;
60426;SDS011;46274;47.168;27.604;2023-04-03T12:30:53;5.17;;;2.70;;
60426;SDS011;46274;47.168;27.604;2023-04-03T12:49:40;3.57;;;1.70;;
60426;SDS011;46274;47.168;27.604;2023-04-03T12:55:47;5.77;;;2.23;;
60426;SDS011;46274;47.168;27.604;2023-04-03T13:01:53;4.17;;;2.07;;
60426;SDS011;46274;47.168;27.604;2023-04-03T13:08:04;7.93;;;2.63;;
60426;SDS011;46274;47.168;27.604;2023-04-03T13:14:23;5.77;;;2.50;;
60426;SDS011;46274;47.168;27.604;2023-04-03T13:20:32;4.77;;;2.17;;
60426;SDS011;46274;47.168;27.604;2023-04-03T13:26:39;2.90;;;2.00;;
60426;SDS011;46274;47.168;27.604;2023-04-03T13:32:45;3.70;;;1.67;;
60426;SDS011;46274;47.168;27.604;2023-04-03T13:45:28;4.63;;;1.60;;
60426;SDS011;46274;47.168;27.604;2023-04-03T13:51:32;7.17;;;1.17;;
60426;SDS011;46274;47.168;27.604;2023-04-03T13:57:54;2.93;;;1.10;;
60426;SDS011;46274;47.168;27.604;2023-04-03T14:04:09;2.43;;;0.97;;
60426;SDS011;46274;47.168;27.604;2023-04-03T14:10:15;2.23;;;1.10;;
60426;SDS011;46274;47.168;27.604;2023-04-03T14:16:19;1.90;;;1.00;;
60426;SDS011;46274;47.168;27.604;2023-04-03T14:22:30;2.23;;;1.30;;
60426;SDS011;46274;47.168;27.604;2023-04-03T14:28:36;5.17;;;1.30;;
60426;SDS011;46274;47.168;27.604;2023-04-03T14:34:44;2.47;;;1.13;;
60426;SDS011;46274;47.168;27.604;2023-04-03T14:40:48;3.17;;;1.73;;
60426;SDS011;46274;47.168;27.604;2023-04-03T14:46:51;4.27;;;1.60;;
60426;SDS011;46274;47.168;27.604;2023-04-03T14:52:58;3.57;;;1.80;;
60426;SDS011;46274;47.168;27.604;2023-04-03T14:59:00;3.60;;;1.60;;
60426;SDS011;46274;47.168;27.604;2023-04-03T15:05:06;3.80;;;1.57;;
60426;SDS011;46274;47.168;27.604;2023-04-03T15:11:10;1.97;;;1.30;;
60426;SDS011;46274;47.168;27.604;2023-04-03T15:17:16;3.00;;;1.40;;
60426;SDS011;46274;47.168;27.604;2023-04-03T15:23:21;2.27;;;1.40;;
60426;SDS011;46274;47.168;27.604;2023-04-03T15:29:29;2.67;;;1.20;;
60426;SDS011;46274;47.168;27.604;2023-04-03T15:35:31;2.80;;;1.57;;
60426;SDS011;46274;47.168;27.604;2023-04-03T15:41:36;8.40;;;3.77;;
60426;SDS011;46274;47.168;27.604;2023-04-03T15:47:41;5.77;;;1.83;;
60426;SDS011;46274;47.168;27.604;2023-04-03T15:53:43;2.20;;;1.10;;
60426;SDS011;46274;47.168;27.604;2023-04-03T15:59:45;3.90;;;1.40;;
60426;SDS011;46274;47.168;27.604;2023-04-03T16:05:47;3.17;;;1.30;;
60426;SDS011;46274;47.168;27.604;2023-04-03T16:11:49;2.20;;;1.40;;
60426;SDS011;46274;47.168;27.604;2023-04-03T16:17:51;3.27;;;1.83;;
60426;SDS011;46274;47.168;27.604;2023-04-03T16:23:58;4.67;;;2.10;;
60426;SDS011;46274;47.168;27.604;2023-04-03T16:30:02;3.73;;;1.60;;
60426;SDS011;46274;47.168;27.604;2023-04-03T16:36:06;3.60;;;1.73;;
60426;SDS011;46274;47.168;27.604;2023-04-03T16:42:09;5.00;;;2.27;;
60426;SDS011;46274;47.168;27.604;2023-04-03T16:48:13;2.67;;;1.40;;
60426;SDS011;46274;47.168;27.604;2023-04-03T16:54:17;1.97;;;1.07;;
60426;SDS011;46274;47.168;27.604;2023-04-03T17:00:20;4.83;;;1.83;;
60426;SDS011;46274;47.168;27.604;2023-04-03T17:06:22;2.40;;;1.40;;
60426;SDS011;46274;47.168;27.604;2023-04-03T17:12:25;4.60;;;2.00;;
60426;SDS011;46274;47.168;27.604;2023-04-03T17:18:28;5.53;;;1.80;;
60426;SDS011;46274;47.168;27.604;2023-04-03T17:24:33;2.23;;;1.47;;
60426;SDS011;46274;47.168;27.604;2023-04-03T17:30:36;3.10;;;1.40;;
60426;SDS011;46274;47.168;27.604;2023-04-03T17:36:39;1.73;;;1.00;;
60426;SDS011;46274;47.168;27.604;2023-04-03T17:42:42;2.90;;;1.50;;
60426;SDS011;46274;47.168;27.604;2023-04-03T17:48:44;4.97;;;1.50;;
60426;SDS011;46274;47.168;27.604;2023-04-03T17:54:47;2.40;;;1.40;;
60426;SDS011;46274;47.168;27.604;2023-04-03T18:00:49;5.47;;;2.47;;
60426;SDS011;46274;47.168;27.604;2023-04-03T18:06:52;12.80;;;2.97;;
60426;SDS011;46274;47.168;27.604;2023-04-03T18:12:56;5.83;;;3.03;;
60426;SDS011;46274;47.168;27.604;2023-04-03T18:18:58;3.67;;;1.60;;
60426;SDS011;46274;47.168;27.604;2023-04-03T18:25:21;3.80;;;1.97;;
60426;SDS011;46274;47.168;27.604;2023-04-03T18:31:24;2.70;;;1.33;;
60426;SDS011;46274;47.168;27.604;2023-04-03T18:37:30;2.87;;;1.53;;
60426;SDS011;46274;47.168;27.604;2023-04-03T18:43:36;2.20;;;1.10;;
60426;SDS011;46274;47.168;27.604;2023-04-03T18:49:39;2.60;;;1.33;;
60426;SDS011;46274;47.168;27.604;2023-04-03T18:55:44;2.03;;;1.27;;
60426;SDS011;46274;47.168;27.604;2023-04-03T19:01:47;5.57;;;1.40;;
60426;SDS011;46274;47.168;27.604;2023-04-03T19:07:52;2.20;;;1.23;;
60426;SDS011;46274;47.168;27.604;2023-04-03T19:14:00;3.20;;;1.90;;
60426;SDS011;46274;47.168;27.604;2023-04-03T19:20:16;2.97;;;1.53;;
60426;SDS011;46274;47.168;27.604;2023-04-03T19:26:19;2.77;;;1.53;;
60426;SDS011;46274;47.168;27.604;2023-04-03T19:32:23;4.20;;;1.80;;
60426;SDS011;46274;47.168;27.604;2023-04-03T19:38:25;2.80;;;1.53;;
60426;SDS011;46274;47.168;27.604;2023-04-03T19:44:29;2.90;;;1.63;;
60426;SDS011;46274;47.168;27.604;2023-04-03T19:50:33;3.80;;;1.93;;
60426;SDS011;46274;47.168;27.604;2023-04-03T19:56:35;1.97;;;1.50;;
60426;SDS011;46274;47.168;27.604;2023-04-03T20:02:37;3.33;;;1.63;;
60426;SDS011;46274;47.168;27.604;2023-04-03T20:08:40;4.30;;;1.50;;
60426;SDS011;46274;47.168;27.604;2023-04-03T20:14:44;3.07;;;1.17;;
60426;SDS011;46274;47.168;27.604;2023-04-03T20:20:58;3.00;;;1.60;;
60426;SDS011;46274;47.168;27.604;2023-04-03T20:27:02;2.67;;;1.73;;
60426;SDS011;46274;47.168;27.604;2023-04-03T20:33:04;3.50;;;1.80;;
60426;SDS011;46274;47.168;27.604;2023-04-03T20:39:07;5.07;;;2.03;;
60426;SDS011;46274;47.168;27.604;2023-04-03T20:45:09;2.70;;;1.67;;
60426;SDS011;46274;47.168;27.604;2023-04-03T20:51:17;2.83;;;1.53;;
60426;SDS011;46274;47.168;27.604;2023-04-03T20:57:20;4.07;;;2.00;;
60426;SDS011;46274;47.168;27.604;2023-04-03T21:03:23;4.63;;;1.90;;
60426;SDS011;46274;47.168;27.604;2023-04-03T21:22:11;2.63;;;1.43;;
60426;SDS011;46274;47.168;27.604;2023-04-03T21:28:15;3.13;;;1.73;;
60426;SDS011;46274;47.168;27.604;2023-04-03T21:34:20;7.27;;;1.77;;
60426;SDS011;46274;47.168;27.604;2023-04-03T21:40:22;3.40;;;1.40;;
60426;SDS011;46274;47.168;27.604;2023-04-03T21:46:25;2.63;;;1.57;;
60426;SDS011;46274;47.168;27.604;2023-04-03T21:52:28;7.13;;;1.30;;
60426;SDS011;46274;47.168;27.604;2023-04-03T21:58:30;2.83;;;1.00;;
60426;SDS011;46274;47.168;27.604;2023-04-03T22:04:33;3.43;;;1.60;;
60426;SDS011;46274;47.168;27.604;2023-04-03T22:10:39;2.40;;;1.50;;
60426;SDS011;46274;47.168;27.604;2023-04-03T22:16:42;2.73;;;1.40;;
60426;SDS011;46274;47.168;27.604;2023-04-03T22:22:48;2.33;;;1.30;;
60426;SDS011;46274;47.168;27.604;2023-04-03T22:28:51;2.77;;;1.50;;
60426;SDS011;46274;47.168;27.604;2023-04-03T22:34:53;3.67;;;1.30;;
60426;SDS011;46274;47.168;27.604;2023-04-03T22:40:58;2.63;;;1.43;;
60426;SDS011;46274;47.168;27.604;2023-04-03T22:47:06;2.10;;;1.40;;
60426;SDS011;46274;47.168;27.604;2023-04-03T22:53:09;4.10;;;2.00;;
60426;SDS011;46274;47.168;27.604;2023-04-03T22:59:12;3.07;;;1.57;;
60426;SDS011;46274;47.168;27.604;2023-04-03T23:05:15;2.90;;;1.70;;
60426;SDS011;46274;47.168;27.604;2023-04-03T23:11:18;3.10;;;1.70;;
60426;SDS011;46274;47.168;27.604;2023-04-03T23:17:22;3.13;;;1.77;;
60426;SDS011;46274;47.168;27.604;2023-04-03T23:23:24;2.80;;;1.73;;
60426;SDS011;46274;47.168;27.604;2023-04-03T23:29:26;3.47;;;2.03;;
60426;SDS011;46274;47.168;27.604;2023-04-03T23:35:29;3.90;;;1.70;;
60426;SDS011;46274;47.168;27.604;2023-04-03T23:41:31;3.63;;;2.00;;
60426;SDS011;46274;47.168;27.604;2023-04-03T23:47:34;4.27;;;2.30;;
60426;SDS011;46274;47.168;27.604;2023-04-03T23:53:36;2.90;;;1.67;;
60426;SDS011;46274;47.168;27.604;2023-04-03T23:59:38;4.03;;;2.00;;
